sensor_id;sensor_type;location;lat;lon;timestamp;P1;durP1;ratioP1;P2;durP2;ratioP2
21727;SDS011;11026;50.560;17.852;2023-07-31T00:02:17;3.88;;;2.70;;
21727;SDS011;11026;50.560;17.852;2023-07-31T00:04:45;3.30;;;2.78;;
21727;SDS011;11026;50.560;17.852;2023-07-31T00:07:14;4.68;;;2.97;;
21727;SDS011;11026;50.560;17.852;2023-07-31T00:09:43;7.80;;;2.78;;
21727;SDS011;11026;50.560;17.852;2023-07-31T00:12:11;4.18;;;3.03;;
21727;SDS011;11026;50.560;17.852;2023-07-31T00:14:39;3.20;;;2.90;;
21727;SDS011;11026;50.560;17.852;2023-07-31T00:17:06;3.30;;;3.00;;
21727;SDS011;11026;50.560;17.852;2023-07-31T00:19:34;4.40;;;3.20;;
21727;SDS011;11026;50.560;17.852;2023-07-31T00:22:01;3.88;;;3.40;;
21727;SDS011;11026;50.560;17.852;2023-07-31T00:24:35;2.90;;;2.60;;
21727;SDS011;11026;50.560;17.852;2023-07-31T00:27:03;4.43;;;2.80;;
21727;SDS011;11026;50.560;17.852;2023-07-31T00:29:31;5.93;;;2.80;;
21727;SDS011;11026;50.560;17.852;2023-07-31T00:31:59;3.67;;;2.47;;
21727;SDS011;11026;50.560;17.852;2023-07-31T00:34:26;3.97;;;2.47;;
21727;SDS011;11026;50.560;17.852;2023-07-31T00:36:54;4.22;;;2.67;;
21727;SDS011;11026;50.560;17.852;2023-07-31T00:39:21;4.45;;;2.53;;
21727;SDS011;11026;50.560;17.852;2023-07-31T00:41:48;4.97;;;2.40;;
21727;SDS011;11026;50.560;17.852;2023-07-31T00:44:17;3.42;;;2.83;;
21727;SDS011;11026;50.560;17.852;2023-07-31T00:46:44;3.75;;;2.50;;
21727;SDS011;11026;50.560;17.852;2023-07-31T00:49:12;3.97;;;2.75;;
21727;SDS011;11026;50.560;17.852;2023-07-31T00:51:46;4.88;;;2.40;;
21727;SDS011;11026;50.560;17.852;2023-07-31T00:54:20;5.82;;;2.60;;
21727;SDS011;11026;50.560;17.852;2023-07-31T00:59:15;5.03;;;2.70;;
21727;SDS011;11026;50.560;17.852;2023-07-31T01:04:13;3.47;;;2.28;;
21727;SDS011;11026;50.560;17.852;2023-07-31T01:07:00;2.90;;;2.42;;
21727;SDS011;11026;50.560;17.852;2023-07-31T01:12:25;6.85;;;2.60;;
21727;SDS011;11026;50.560;17.852;2023-07-31T01:17:32;4.28;;;2.65;;
21727;SDS011;11026;50.560;17.852;2023-07-31T01:20:02;2.83;;;2.42;;
21727;SDS011;11026;50.560;17.852;2023-07-31T01:22:40;3.55;;;2.35;;
21727;SDS011;11026;50.560;17.852;2023-07-31T01:31:20;4.20;;;3.00;;
21727;SDS011;11026;50.560;17.852;2023-07-31T01:33:53;6.88;;;3.13;;
21727;SDS011;11026;50.560;17.852;2023-07-31T01:36:22;4.93;;;3.13;;
21727;SDS011;11026;50.560;17.852;2023-07-31T01:38:50;3.85;;;3.05;;
21727;SDS011;11026;50.560;17.852;2023-07-31T01:41:18;5.07;;;3.28;;
21727;SDS011;11026;50.560;17.852;2023-07-31T01:43:47;4.78;;;3.20;;
21727;SDS011;11026;50.560;17.852;2023-07-31T01:46:16;6.63;;;3.35;;
21727;SDS011;11026;50.560;17.852;2023-07-31T01:48:45;4.55;;;2.80;;
21727;SDS011;11026;50.560;17.852;2023-07-31T01:51:13;4.88;;;2.78;;
21727;SDS011;11026;50.560;17.852;2023-07-31T01:53:41;5.35;;;3.10;;
21727;SDS011;11026;50.560;17.852;2023-07-31T01:56:08;6.22;;;3.30;;
21727;SDS011;11026;50.560;17.852;2023-07-31T01:58:35;7.55;;;3.53;;
21727;SDS011;11026;50.560;17.852;2023-07-31T02:01:03;5.53;;;3.33;;
21727;SDS011;11026;50.560;17.852;2023-07-31T02:03:30;8.70;;;3.42;;
21727;SDS011;11026;50.560;17.852;2023-07-31T02:05:58;5.25;;;3.60;;
21727;SDS011;11026;50.560;17.852;2023-07-31T02:08:25;6.47;;;3.55;;
21727;SDS011;11026;50.560;17.852;2023-07-31T02:10:53;6.72;;;3.95;;
21727;SDS011;11026;50.560;17.852;2023-07-31T02:13:21;5.47;;;4.00;;
21727;SDS011;11026;50.560;17.852;2023-07-31T02:15:54;8.23;;;3.70;;
21727;SDS011;11026;50.560;17.852;2023-07-31T02:18:21;5.43;;;4.10;;
21727;SDS011;11026;50.560;17.852;2023-07-31T02:20:49;4.95;;;3.55;;
21727;SDS011;11026;50.560;17.852;2023-07-31T02:23:19;4.53;;;4.10;;
21727;SDS011;11026;50.560;17.852;2023-07-31T02:25:46;4.53;;;3.53;;
21727;SDS011;11026;50.560;17.852;2023-07-31T02:28:14;5.72;;;3.42;;
21727;SDS011;11026;50.560;17.852;2023-07-31T02:30:43;6.00;;;3.50;;
21727;SDS011;11026;50.560;17.852;2023-07-31T02:33:14;4.05;;;3.63;;
21727;SDS011;11026;50.560;17.852;2023-07-31T02:35:44;6.72;;;3.65;;
21727;SDS011;11026;50.560;17.852;2023-07-31T02:38:12;5.47;;;3.40;;
21727;SDS011;11026;50.560;17.852;2023-07-31T02:40:42;5.03;;;3.40;;
21727;SDS011;11026;50.560;17.852;2023-07-31T02:43:15;6.40;;;3.70;;
21727;SDS011;11026;50.560;17.852;2023-07-31T02:45:44;3.90;;;3.25;;
21727;SDS011;11026;50.560;17.852;2023-07-31T02:48:11;4.35;;;3.30;;
21727;SDS011;11026;50.560;17.852;2023-07-31T02:50:39;3.78;;;2.90;;
21727;SDS011;11026;50.560;17.852;2023-07-31T02:53:06;4.72;;;2.97;;
21727;SDS011;11026;50.560;17.852;2023-07-31T02:55:34;5.28;;;3.15;;
21727;SDS011;11026;50.560;17.852;2023-07-31T02:58:02;3.33;;;2.97;;
21727;SDS011;11026;50.560;17.852;2023-07-31T03:00:30;5.43;;;3.13;;
21727;SDS011;11026;50.560;17.852;2023-07-31T03:02:58;5.22;;;3.13;;
21727;SDS011;11026;50.560;17.852;2023-07-31T03:05:26;6.63;;;3.10;;
21727;SDS011;11026;50.560;17.852;2023-07-31T03:07:53;5.57;;;3.28;;
21727;SDS011;11026;50.560;17.852;2023-07-31T03:10:21;3.70;;;3.40;;
21727;SDS011;11026;50.560;17.852;2023-07-31T03:12:48;4.80;;;3.35;;
21727;SDS011;11026;50.560;17.852;2023-07-31T03:15:16;9.57;;;3.30;;
21727;SDS011;11026;50.560;17.852;2023-07-31T03:17:43;7.45;;;3.05;;
21727;SDS011;11026;50.560;17.852;2023-07-31T03:20:12;4.05;;;2.92;;
21727;SDS011;11026;50.560;17.852;2023-07-31T03:22:39;5.47;;;2.97;;
21727;SDS011;11026;50.560;17.852;2023-07-31T03:25:07;7.40;;;3.30;;
21727;SDS011;11026;50.560;17.852;2023-07-31T03:27:36;6.03;;;3.30;;
21727;SDS011;11026;50.560;17.852;2023-07-31T03:30:04;4.72;;;3.45;;
21727;SDS011;11026;50.560;17.852;2023-07-31T03:32:32;3.53;;;3.00;;
21727;SDS011;11026;50.560;17.852;2023-07-31T03:35:00;4.00;;;3.15;;
21727;SDS011;11026;50.560;17.852;2023-07-31T03:37:28;4.57;;;3.58;;
21727;SDS011;11026;50.560;17.852;2023-07-31T03:39:56;6.53;;;3.47;;
21727;SDS011;11026;50.560;17.852;2023-07-31T03:42:24;5.40;;;3.00;;
21727;SDS011;11026;50.560;17.852;2023-07-31T03:44:51;4.30;;;3.40;;
21727;SDS011;11026;50.560;17.852;2023-07-31T03:47:18;6.25;;;3.17;;
21727;SDS011;11026;50.560;17.852;2023-07-31T03:49:46;4.05;;;3.10;;
21727;SDS011;11026;50.560;17.852;2023-07-31T03:52:14;5.68;;;2.90;;
21727;SDS011;11026;50.560;17.852;2023-07-31T03:54:47;5.43;;;3.17;;
21727;SDS011;11026;50.560;17.852;2023-07-31T03:57:14;5.32;;;3.10;;
21727;SDS011;11026;50.560;17.852;2023-07-31T03:59:42;4.85;;;2.92;;
21727;SDS011;11026;50.560;17.852;2023-07-31T04:02:33;5.18;;;3.13;;
21727;SDS011;11026;50.560;17.852;2023-07-31T04:05:02;4.60;;;3.13;;
21727;SDS011;11026;50.560;17.852;2023-07-31T04:07:29;4.10;;;2.80;;
21727;SDS011;11026;50.560;17.852;2023-07-31T04:09:57;5.07;;;2.80;;
21727;SDS011;11026;50.560;17.852;2023-07-31T04:12:25;2.85;;;2.58;;
21727;SDS011;11026;50.560;17.852;2023-07-31T04:14:53;6.05;;;2.70;;
21727;SDS011;11026;50.560;17.852;2023-07-31T04:17:21;5.88;;;2.65;;
21727;SDS011;11026;50.560;17.852;2023-07-31T04:19:49;5.60;;;2.95;;
21727;SDS011;11026;50.560;17.852;2023-07-31T04:22:16;6.35;;;2.90;;
21727;SDS011;11026;50.560;17.852;2023-07-31T04:27:14;4.97;;;3.28;;
21727;SDS011;11026;50.560;17.852;2023-07-31T04:29:42;4.00;;;2.70;;
21727;SDS011;11026;50.560;17.852;2023-07-31T04:32:12;5.45;;;2.70;;
21727;SDS011;11026;50.560;17.852;2023-07-31T04:34:39;4.13;;;2.90;;
21727;SDS011;11026;50.560;17.852;2023-07-31T04:37:06;7.10;;;3.10;;
21727;SDS011;11026;50.560;17.852;2023-07-31T04:39:35;4.00;;;2.65;;
21727;SDS011;11026;50.560;17.852;2023-07-31T04:42:03;3.78;;;2.78;;
21727;SDS011;11026;50.560;17.852;2023-07-31T04:44:31;6.25;;;2.90;;
21727;SDS011;11026;50.560;17.852;2023-07-31T04:46:59;4.97;;;2.92;;
21727;SDS011;11026;50.560;17.852;2023-07-31T04:49:28;6.47;;;2.90;;
21727;SDS011;11026;50.560;17.852;2023-07-31T04:51:55;4.28;;;3.08;;
21727;SDS011;11026;50.560;17.852;2023-07-31T04:54:25;6.05;;;2.97;;
21727;SDS011;11026;50.560;17.852;2023-07-31T04:56:53;4.85;;;2.78;;
21727;SDS011;11026;50.560;17.852;2023-07-31T04:59:21;5.28;;;3.30;;
21727;SDS011;11026;50.560;17.852;2023-07-31T05:01:48;4.88;;;2.80;;
21727;SDS011;11026;50.560;17.852;2023-07-31T05:04:15;8.43;;;2.70;;
21727;SDS011;11026;50.560;17.852;2023-07-31T05:06:44;7.05;;;3.33;;
21727;SDS011;11026;50.560;17.852;2023-07-31T05:09:11;6.13;;;2.95;;
21727;SDS011;11026;50.560;17.852;2023-07-31T05:11:39;5.60;;;2.80;;
21727;SDS011;11026;50.560;17.852;2023-07-31T05:14:07;5.25;;;2.95;;
21727;SDS011;11026;50.560;17.852;2023-07-31T05:16:35;4.82;;;2.92;;
21727;SDS011;11026;50.560;17.852;2023-07-31T05:19:04;3.63;;;3.22;;
21727;SDS011;11026;50.560;17.852;2023-07-31T05:21:32;6.18;;;3.10;;
21727;SDS011;11026;50.560;17.852;2023-07-31T05:23:59;8.07;;;3.15;;
21727;SDS011;11026;50.560;17.852;2023-07-31T05:26:29;6.60;;;3.20;;
21727;SDS011;11026;50.560;17.852;2023-07-31T05:28:56;5.15;;;3.33;;
21727;SDS011;11026;50.560;17.852;2023-07-31T05:31:33;6.55;;;3.25;;
21727;SDS011;11026;50.560;17.852;2023-07-31T05:34:00;4.15;;;2.67;;
21727;SDS011;11026;50.560;17.852;2023-07-31T05:36:28;4.50;;;3.33;;
21727;SDS011;11026;50.560;17.852;2023-07-31T05:38:55;4.72;;;3.03;;
21727;SDS011;11026;50.560;17.852;2023-07-31T05:41:23;4.00;;;3.13;;
21727;SDS011;11026;50.560;17.852;2023-07-31T05:43:50;4.40;;;3.05;;
21727;SDS011;11026;50.560;17.852;2023-07-31T05:46:18;10.05;;;3.25;;
21727;SDS011;11026;50.560;17.852;2023-07-31T05:48:46;6.57;;;3.17;;
21727;SDS011;11026;50.560;17.852;2023-07-31T05:51:13;3.20;;;2.90;;
21727;SDS011;11026;50.560;17.852;2023-07-31T05:53:43;4.45;;;3.03;;
21727;SDS011;11026;50.560;17.852;2023-07-31T05:56:11;4.95;;;2.83;;
21727;SDS011;11026;50.560;17.852;2023-07-31T05:58:39;6.40;;;3.10;;
21727;SDS011;11026;50.560;17.852;2023-07-31T06:01:07;4.32;;;3.15;;
21727;SDS011;11026;50.560;17.852;2023-07-31T06:03:34;5.75;;;2.85;;
21727;SDS011;11026;50.560;17.852;2023-07-31T06:06:03;3.75;;;2.90;;
21727;SDS011;11026;50.560;17.852;2023-07-31T06:08:32;4.65;;;2.90;;
21727;SDS011;11026;50.560;17.852;2023-07-31T06:10:59;8.05;;;2.90;;
21727;SDS011;11026;50.560;17.852;2023-07-31T06:13:29;4.05;;;2.90;;
21727;SDS011;11026;50.560;17.852;2023-07-31T06:15:56;8.40;;;3.22;;
21727;SDS011;11026;50.560;17.852;2023-07-31T06:18:26;4.22;;;3.17;;
21727;SDS011;11026;50.560;17.852;2023-07-31T06:20:53;5.70;;;3.08;;
21727;SDS011;11026;50.560;17.852;2023-07-31T06:23:21;7.32;;;4.55;;
21727;SDS011;11026;50.560;17.852;2023-07-31T06:25:54;4.55;;;3.00;;
21727;SDS011;11026;50.560;17.852;2023-07-31T06:28:27;5.13;;;2.85;;
21727;SDS011;11026;50.560;17.852;2023-07-31T06:30:58;3.88;;;3.08;;
21727;SDS011;11026;50.560;17.852;2023-07-31T06:33:26;3.80;;;2.65;;
21727;SDS011;11026;50.560;17.852;2023-07-31T06:35:55;4.55;;;2.90;;
21727;SDS011;11026;50.560;17.852;2023-07-31T06:38:23;7.47;;;2.72;;
21727;SDS011;11026;50.560;17.852;2023-07-31T06:40:52;4.65;;;2.55;;
21727;SDS011;11026;50.560;17.852;2023-07-31T06:43:20;3.45;;;2.53;;
21727;SDS011;11026;50.560;17.852;2023-07-31T06:45:47;4.03;;;2.50;;
21727;SDS011;11026;50.560;17.852;2023-07-31T06:48:18;4.32;;;2.28;;
21727;SDS011;11026;50.560;17.852;2023-07-31T06:50:45;4.47;;;2.33;;
21727;SDS011;11026;50.560;17.852;2023-07-31T06:53:13;7.38;;;2.95;;
21727;SDS011;11026;50.560;17.852;2023-07-31T06:55:40;5.93;;;2.70;;
21727;SDS011;11026;50.560;17.852;2023-07-31T06:58:08;4.65;;;2.45;;
21727;SDS011;11026;50.560;17.852;2023-07-31T07:00:35;5.68;;;2.30;;
21727;SDS011;11026;50.560;17.852;2023-07-31T07:03:03;7.28;;;2.17;;
21727;SDS011;11026;50.560;17.852;2023-07-31T07:05:32;5.05;;;2.45;;
21727;SDS011;11026;50.560;17.852;2023-07-31T07:08:00;5.30;;;2.10;;
21727;SDS011;11026;50.560;17.852;2023-07-31T07:10:28;4.28;;;2.50;;
21727;SDS011;11026;50.560;17.852;2023-07-31T07:12:56;5.95;;;2.30;;
21727;SDS011;11026;50.560;17.852;2023-07-31T07:15:25;4.75;;;2.00;;
21727;SDS011;11026;50.560;17.852;2023-07-31T07:17:53;5.53;;;2.38;;
21727;SDS011;11026;50.560;17.852;2023-07-31T07:20:21;5.20;;;2.45;;
21727;SDS011;11026;50.560;17.852;2023-07-31T07:45:53;2.38;;;1.80;;
21727;SDS011;11026;50.560;17.852;2023-07-31T07:48:21;4.50;;;2.00;;
21727;SDS011;11026;50.560;17.852;2023-07-31T07:50:50;4.25;;;1.83;;
21727;SDS011;11026;50.560;17.852;2023-07-31T07:53:19;6.00;;;2.25;;
21727;SDS011;11026;50.560;17.852;2023-07-31T07:55:47;5.30;;;2.20;;
21727;SDS011;11026;50.560;17.852;2023-07-31T07:58:14;5.82;;;2.10;;
21727;SDS011;11026;50.560;17.852;2023-07-31T08:00:48;6.45;;;2.03;;
21727;SDS011;11026;50.560;17.852;2023-07-31T08:03:17;4.15;;;1.92;;
21727;SDS011;11026;50.560;17.852;2023-07-31T08:05:50;6.07;;;2.20;;
21727;SDS011;11026;50.560;17.852;2023-07-31T08:08:18;5.38;;;2.10;;
21727;SDS011;11026;50.560;17.852;2023-07-31T08:10:46;4.43;;;1.77;;
21727;SDS011;11026;50.560;17.852;2023-07-31T08:13:13;3.17;;;2.00;;
21727;SDS011;11026;50.560;17.852;2023-07-31T08:15:41;4.32;;;1.75;;
21727;SDS011;11026;50.560;17.852;2023-07-31T08:18:10;3.83;;;1.80;;
21727;SDS011;11026;50.560;17.852;2023-07-31T08:20:40;4.80;;;1.95;;
21727;SDS011;11026;50.560;17.852;2023-07-31T08:23:10;5.50;;;1.98;;
21727;SDS011;11026;50.560;17.852;2023-07-31T08:25:44;3.92;;;2.00;;
21727;SDS011;11026;50.560;17.852;2023-07-31T08:28:12;5.68;;;1.90;;
21727;SDS011;11026;50.560;17.852;2023-07-31T08:30:42;4.30;;;1.80;;
21727;SDS011;11026;50.560;17.852;2023-07-31T08:33:09;4.57;;;1.75;;
21727;SDS011;11026;50.560;17.852;2023-07-31T08:35:37;5.90;;;2.00;;
21727;SDS011;11026;50.560;17.852;2023-07-31T08:38:04;5.45;;;1.90;;
21727;SDS011;11026;50.560;17.852;2023-07-31T08:40:32;4.85;;;1.38;;
21727;SDS011;11026;50.560;17.852;2023-07-31T08:43:04;3.22;;;1.58;;
21727;SDS011;11026;50.560;17.852;2023-07-31T08:45:33;4.00;;;1.90;;
21727;SDS011;11026;50.560;17.852;2023-07-31T08:48:01;5.18;;;1.45;;
21727;SDS011;11026;50.560;17.852;2023-07-31T08:50:29;3.22;;;1.60;;
21727;SDS011;11026;50.560;17.852;2023-07-31T08:52:58;4.97;;;1.70;;
21727;SDS011;11026;50.560;17.852;2023-07-31T08:55:25;7.15;;;2.00;;
21727;SDS011;11026;50.560;17.852;2023-07-31T08:57:56;4.50;;;1.67;;
21727;SDS011;11026;50.560;17.852;2023-07-31T09:00:25;1.98;;;1.35;;
21727;SDS011;11026;50.560;17.852;2023-07-31T09:02:59;4.10;;;1.50;;
21727;SDS011;11026;50.560;17.852;2023-07-31T09:05:31;3.17;;;1.73;;
21727;SDS011;11026;50.560;17.852;2023-07-31T09:07:58;4.10;;;1.90;;
21727;SDS011;11026;50.560;17.852;2023-07-31T09:10:30;3.60;;;1.48;;
21727;SDS011;11026;50.560;17.852;2023-07-31T09:12:58;6.13;;;1.77;;
21727;SDS011;11026;50.560;17.852;2023-07-31T09:15:27;6.45;;;2.20;;
21727;SDS011;11026;50.560;17.852;2023-07-31T09:18:05;7.07;;;2.00;;
21727;SDS011;11026;50.560;17.852;2023-07-31T09:20:33;4.63;;;1.80;;
21727;SDS011;11026;50.560;17.852;2023-07-31T09:23:08;3.90;;;1.20;;
21727;SDS011;11026;50.560;17.852;2023-07-31T09:25:37;3.88;;;1.73;;
21727;SDS011;11026;50.560;17.852;2023-07-31T09:28:08;3.50;;;1.63;;
21727;SDS011;11026;50.560;17.852;2023-07-31T09:30:44;5.50;;;1.65;;
21727;SDS011;11026;50.560;17.852;2023-07-31T09:33:18;3.35;;;1.70;;
21727;SDS011;11026;50.560;17.852;2023-07-31T09:35:47;4.97;;;1.50;;
21727;SDS011;11026;50.560;17.852;2023-07-31T09:40:48;5.05;;;1.60;;
21727;SDS011;11026;50.560;17.852;2023-07-31T09:43:19;5.70;;;1.70;;
21727;SDS011;11026;50.560;17.852;2023-07-31T09:45:47;4.57;;;1.50;;
21727;SDS011;11026;50.560;17.852;2023-07-31T09:48:20;3.87;;;1.70;;
21727;SDS011;11026;50.560;17.852;2023-07-31T09:50:53;4.03;;;1.70;;
21727;SDS011;11026;50.560;17.852;2023-07-31T09:53:28;8.30;;;1.92;;
21727;SDS011;11026;50.560;17.852;2023-07-31T09:55:59;2.90;;;1.45;;
21727;SDS011;11026;50.560;17.852;2023-07-31T09:58:29;4.32;;;1.80;;
21727;SDS011;11026;50.560;17.852;2023-07-31T10:00:57;6.68;;;2.00;;
21727;SDS011;11026;50.560;17.852;2023-07-31T10:03:26;3.28;;;1.70;;
21727;SDS011;11026;50.560;17.852;2023-07-31T10:05:55;3.70;;;1.70;;
21727;SDS011;11026;50.560;17.852;2023-07-31T10:08:27;3.70;;;1.67;;
21727;SDS011;11026;50.560;17.852;2023-07-31T10:11:00;4.57;;;1.80;;
21727;SDS011;11026;50.560;17.852;2023-07-31T10:13:34;5.35;;;1.60;;
21727;SDS011;11026;50.560;17.852;2023-07-31T10:16:02;5.57;;;1.80;;
21727;SDS011;11026;50.560;17.852;2023-07-31T10:18:31;7.90;;;2.22;;
21727;SDS011;11026;50.560;17.852;2023-07-31T10:20:59;2.88;;;1.80;;
21727;SDS011;11026;50.560;17.852;2023-07-31T10:23:27;3.92;;;1.65;;
21727;SDS011;11026;50.560;17.852;2023-07-31T10:25:56;4.28;;;1.70;;
21727;SDS011;11026;50.560;17.852;2023-07-31T10:28:25;4.13;;;2.03;;
21727;SDS011;11026;50.560;17.852;2023-07-31T10:30:54;3.55;;;1.50;;
21727;SDS011;11026;50.560;17.852;2023-07-31T10:33:22;4.40;;;1.52;;
21727;SDS011;11026;50.560;17.852;2023-07-31T10:35:49;3.75;;;1.58;;
21727;SDS011;11026;50.560;17.852;2023-07-31T10:38:20;2.70;;;1.33;;
21727;SDS011;11026;50.560;17.852;2023-07-31T10:40:51;3.38;;;1.58;;
21727;SDS011;11026;50.560;17.852;2023-07-31T10:43:26;3.38;;;1.40;;
21727;SDS011;11026;50.560;17.852;2023-07-31T10:45:54;2.92;;;1.30;;
21727;SDS011;11026;50.560;17.852;2023-07-31T10:48:21;3.05;;;1.30;;
21727;SDS011;11026;50.560;17.852;2023-07-31T10:50:52;1.95;;;1.20;;
21727;SDS011;11026;50.560;17.852;2023-07-31T10:53:23;3.10;;;1.05;;
21727;SDS011;11026;50.560;17.852;2023-07-31T10:58:26;2.03;;;1.00;;
21727;SDS011;11026;50.560;17.852;2023-07-31T11:01:00;1.52;;;1.00;;
21727;SDS011;11026;50.560;17.852;2023-07-31T11:03:46;1.70;;;1.08;;
21727;SDS011;11026;50.560;17.852;2023-07-31T11:06:16;2.20;;;1.17;;
21727;SDS011;11026;50.560;17.852;2023-07-31T11:08:46;2.38;;;1.10;;
21727;SDS011;11026;50.560;17.852;2023-07-31T11:11:15;2.17;;;0.90;;
21727;SDS011;11026;50.560;17.852;2023-07-31T11:13:46;3.22;;;1.02;;
21727;SDS011;11026;50.560;17.852;2023-07-31T11:16:20;4.07;;;1.40;;
21727;SDS011;11026;50.560;17.852;2023-07-31T11:18:52;2.30;;;1.20;;
21727;SDS011;11026;50.560;17.852;2023-07-31T11:21:24;2.42;;;1.30;;
21727;SDS011;11026;50.560;17.852;2023-07-31T11:23:52;3.03;;;1.70;;
21727;SDS011;11026;50.560;17.852;2023-07-31T11:26:25;3.00;;;1.07;;
21727;SDS011;11026;50.560;17.852;2023-07-31T11:28:53;3.53;;;1.10;;
21727;SDS011;11026;50.560;17.852;2023-07-31T11:31:21;2.70;;;1.38;;
21727;SDS011;11026;50.560;17.852;2023-07-31T11:33:50;2.50;;;1.35;;
21727;SDS011;11026;50.560;17.852;2023-07-31T11:36:18;3.53;;;1.40;;
21727;SDS011;11026;50.560;17.852;2023-07-31T11:38:46;5.30;;;1.20;;
21727;SDS011;11026;50.560;17.852;2023-07-31T11:41:20;2.30;;;1.40;;
21727;SDS011;11026;50.560;17.852;2023-07-31T11:43:47;1.88;;;1.20;;
21727;SDS011;11026;50.560;17.852;2023-07-31T11:46:16;2.05;;;1.30;;
21727;SDS011;11026;50.560;17.852;2023-07-31T11:48:45;3.05;;;1.30;;
21727;SDS011;11026;50.560;17.852;2023-07-31T11:51:12;2.88;;;1.70;;
21727;SDS011;11026;50.560;17.852;2023-07-31T11:53:43;2.70;;;1.30;;
21727;SDS011;11026;50.560;17.852;2023-07-31T11:56:19;4.65;;;1.95;;
21727;SDS011;11026;50.560;17.852;2023-07-31T11:58:48;2.95;;;1.60;;
21727;SDS011;11026;50.560;17.852;2023-07-31T12:01:20;2.40;;;1.60;;
21727;SDS011;11026;50.560;17.852;2023-07-31T12:03:49;2.08;;;1.63;;
21727;SDS011;11026;50.560;17.852;2023-07-31T12:06:18;2.88;;;1.73;;
21727;SDS011;11026;50.560;17.852;2023-07-31T12:08:48;3.15;;;1.70;;
21727;SDS011;11026;50.560;17.852;2023-07-31T12:11:18;2.65;;;1.67;;
21727;SDS011;11026;50.560;17.852;2023-07-31T12:13:45;2.38;;;1.40;;
21727;SDS011;11026;50.560;17.852;2023-07-31T12:16:14;2.70;;;1.65;;
21727;SDS011;11026;50.560;17.852;2023-07-31T12:18:41;3.08;;;1.90;;
21727;SDS011;11026;50.560;17.852;2023-07-31T12:21:09;3.08;;;2.08;;
21727;SDS011;11026;50.560;17.852;2023-07-31T12:23:38;2.75;;;2.40;;
21727;SDS011;11026;50.560;17.852;2023-07-31T12:26:16;4.10;;;1.85;;
21727;SDS011;11026;50.560;17.852;2023-07-31T12:28:50;2.30;;;2.10;;
21727;SDS011;11026;50.560;17.852;2023-07-31T12:31:18;3.13;;;2.60;;
21727;SDS011;11026;50.560;17.852;2023-07-31T12:33:49;2.67;;;2.00;;
21727;SDS011;11026;50.560;17.852;2023-07-31T12:36:19;2.60;;;2.00;;
21727;SDS011;11026;50.560;17.852;2023-07-31T12:38:48;3.65;;;2.13;;
21727;SDS011;11026;50.560;17.852;2023-07-31T12:41:17;4.68;;;2.30;;
21727;SDS011;11026;50.560;17.852;2023-07-31T12:43:44;2.85;;;2.10;;
21727;SDS011;11026;50.560;17.852;2023-07-31T12:46:12;2.60;;;2.17;;
21727;SDS011;11026;50.560;17.852;2023-07-31T12:48:41;4.07;;;2.13;;
21727;SDS011;11026;50.560;17.852;2023-07-31T12:51:15;4.45;;;2.33;;
21727;SDS011;11026;50.560;17.852;2023-07-31T12:53:42;4.32;;;2.55;;
21727;SDS011;11026;50.560;17.852;2023-07-31T12:56:09;4.15;;;2.22;;
21727;SDS011;11026;50.560;17.852;2023-07-31T12:58:37;2.67;;;2.10;;
21727;SDS011;11026;50.560;17.852;2023-07-31T13:01:04;2.83;;;2.28;;
21727;SDS011;11026;50.560;17.852;2023-07-31T13:03:35;2.47;;;2.22;;
21727;SDS011;11026;50.560;17.852;2023-07-31T13:06:08;3.30;;;2.28;;
21727;SDS011;11026;50.560;17.852;2023-07-31T13:08:35;2.20;;;1.95;;
21727;SDS011;11026;50.560;17.852;2023-07-31T13:11:04;3.13;;;2.17;;
21727;SDS011;11026;50.560;17.852;2023-07-31T13:13:32;3.67;;;2.13;;
21727;SDS011;11026;50.560;17.852;2023-07-31T13:16:00;3.65;;;2.40;;
21727;SDS011;11026;50.560;17.852;2023-07-31T13:18:27;3.50;;;2.58;;
21727;SDS011;11026;50.560;17.852;2023-07-31T13:20:55;3.88;;;2.45;;
21727;SDS011;11026;50.560;17.852;2023-07-31T13:23:22;3.50;;;2.30;;
21727;SDS011;11026;50.560;17.852;2023-07-31T13:25:50;3.72;;;2.30;;
21727;SDS011;11026;50.560;17.852;2023-07-31T13:28:17;3.65;;;2.38;;
21727;SDS011;11026;50.560;17.852;2023-07-31T13:30:45;3.47;;;2.60;;
21727;SDS011;11026;50.560;17.852;2023-07-31T13:33:13;3.83;;;2.65;;
21727;SDS011;11026;50.560;17.852;2023-07-31T13:36:00;3.20;;;2.47;;
21727;SDS011;11026;50.560;17.852;2023-07-31T13:38:29;3.33;;;2.72;;
21727;SDS011;11026;50.560;17.852;2023-07-31T13:40:58;5.95;;;3.13;;
21727;SDS011;11026;50.560;17.852;2023-07-31T13:43:27;3.38;;;2.60;;
21727;SDS011;11026;50.560;17.852;2023-07-31T13:45:55;3.15;;;2.78;;
21727;SDS011;11026;50.560;17.852;2023-07-31T13:48:22;4.82;;;3.10;;
21727;SDS011;11026;50.560;17.852;2023-07-31T13:50:50;3.42;;;2.83;;
21727;SDS011;11026;50.560;17.852;2023-07-31T13:53:17;3.50;;;2.95;;
21727;SDS011;11026;50.560;17.852;2023-07-31T13:58:13;4.68;;;2.90;;
21727;SDS011;11026;50.560;17.852;2023-07-31T14:00:41;3.15;;;2.55;;
21727;SDS011;11026;50.560;17.852;2023-07-31T14:03:09;3.80;;;2.40;;
21727;SDS011;11026;50.560;17.852;2023-07-31T14:05:37;3.50;;;2.63;;
21727;SDS011;11026;50.560;17.852;2023-07-31T14:08:05;4.68;;;2.50;;
21727;SDS011;11026;50.560;17.852;2023-07-31T14:10:32;6.82;;;3.00;;
21727;SDS011;11026;50.560;17.852;2023-07-31T14:12:59;3.17;;;2.63;;
21727;SDS011;11026;50.560;17.852;2023-07-31T14:15:28;2.90;;;2.60;;
21727;SDS011;11026;50.560;17.852;2023-07-31T14:17:56;5.43;;;3.15;;
21727;SDS011;11026;50.560;17.852;2023-07-31T14:20:28;4.40;;;2.63;;
21727;SDS011;11026;50.560;17.852;2023-07-31T14:22:57;3.67;;;2.92;;
21727;SDS011;11026;50.560;17.852;2023-07-31T14:25:24;3.83;;;2.80;;
21727;SDS011;11026;50.560;17.852;2023-07-31T14:27:52;3.38;;;2.92;;
21727;SDS011;11026;50.560;17.852;2023-07-31T14:30:20;4.43;;;3.25;;
21727;SDS011;11026;50.560;17.852;2023-07-31T14:32:48;3.78;;;3.15;;
21727;SDS011;11026;50.560;17.852;2023-07-31T14:35:24;4.68;;;2.70;;
21727;SDS011;11026;50.560;17.852;2023-07-31T14:40:19;4.43;;;2.72;;
21727;SDS011;11026;50.560;17.852;2023-07-31T14:42:48;3.60;;;3.10;;
21727;SDS011;11026;50.560;17.852;2023-07-31T14:45:17;5.63;;;3.20;;
21727;SDS011;11026;50.560;17.852;2023-07-31T14:47:44;3.35;;;2.97;;
21727;SDS011;11026;50.560;17.852;2023-07-31T14:50:19;4.88;;;3.15;;
21727;SDS011;11026;50.560;17.852;2023-07-31T14:52:48;3.42;;;2.80;;
21727;SDS011;11026;50.560;17.852;2023-07-31T14:55:16;3.63;;;3.10;;
21727;SDS011;11026;50.560;17.852;2023-07-31T14:57:44;6.15;;;3.45;;
21727;SDS011;11026;50.560;17.852;2023-07-31T15:00:13;4.30;;;3.00;;
21727;SDS011;11026;50.560;17.852;2023-07-31T15:02:41;5.18;;;3.08;;
21727;SDS011;11026;50.560;17.852;2023-07-31T15:05:09;3.22;;;2.60;;
21727;SDS011;11026;50.560;17.852;2023-07-31T15:07:49;4.07;;;2.80;;
21727;SDS011;11026;50.560;17.852;2023-07-31T15:10:19;3.83;;;2.40;;
21727;SDS011;11026;50.560;17.852;2023-07-31T15:12:47;4.07;;;2.40;;
21727;SDS011;11026;50.560;17.852;2023-07-31T15:15:15;3.92;;;2.30;;
21727;SDS011;11026;50.560;17.852;2023-07-31T15:17:43;4.57;;;2.58;;
21727;SDS011;11026;50.560;17.852;2023-07-31T15:20:10;2.72;;;2.35;;
21727;SDS011;11026;50.560;17.852;2023-07-31T15:22:39;3.38;;;2.50;;
21727;SDS011;11026;50.560;17.852;2023-07-31T15:25:07;3.22;;;2.70;;
21727;SDS011;11026;50.560;17.852;2023-07-31T15:27:36;6.32;;;3.10;;
21727;SDS011;11026;50.560;17.852;2023-07-31T15:30:10;3.20;;;2.25;;
21727;SDS011;11026;50.560;17.852;2023-07-31T15:32:37;4.78;;;2.33;;
21727;SDS011;11026;50.560;17.852;2023-07-31T15:35:06;3.05;;;2.58;;
21727;SDS011;11026;50.560;17.852;2023-07-31T15:37:35;5.63;;;2.58;;